Old Town, Maine
Current Conditions -  °F | °C
As of 6:53 PM on Saturday 20 Dec 2014 (Local Time) from KBGR Reporting Station
Overcast Overcast  
Wind Chill: 12°   Ceiling: 1400
Heat Index: 23°   Visibility: 10mi
Dew Point: 19°   Wind: 10mph
Humidity: 85%   Direction: 340°NNW
Pressure: 30.36"   Gusts: NA
Location:  44.94°N, 68.65°W
Report Text: KBGR 202353Z 34009KT 10SM OVC014 M05/M07 A3036 RMK AO2 SLP286 4/002 T10501072 11050 21056 51007
Loading
Personal Weather Stations






























Interactive Weather Map New forecast layout! Learn more

10-Day Weather Forecast

Advertisements
Track Severe Weather on mobile